createdAt,value
2022-12-04T00:00:14.262Z,99.5
2022-12-04T00:01:30.561Z,99.5
2022-12-04T00:02:46.857Z,99.6
2022-12-04T00:04:03.145Z,99.5
2022-12-04T00:05:19.443Z,99.6
2022-12-04T00:06:34.752Z,99.6
2022-12-04T00:07:51.049Z,99.6
2022-12-04T00:09:07.355Z,99.6
2022-12-04T00:10:23.640Z,99.6
2022-12-04T00:11:39.931Z,99.6
2022-12-04T00:12:56.233Z,99.6
2022-12-04T00:14:12.517Z,99.6
2022-12-04T00:15:28.815Z,99.5
2022-12-04T00:16:45.106Z,99.4
2022-12-04T00:18:01.406Z,99.4
2022-12-04T00:19:17.706Z,99.5
2022-12-04T00:20:34.008Z,99.5
2022-12-04T00:21:50.295Z,99.5
2022-12-04T00:23:05.606Z,99.6
2022-12-04T00:24:21.902Z,99.6
2022-12-04T00:25:38.189Z,99.6
2022-12-04T00:26:54.477Z,99.7
2022-12-04T00:28:10.795Z,99.6
2022-12-04T00:29:27.073Z,99.6
2022-12-04T00:30:43.371Z,99.7
2022-12-04T00:31:59.664Z,99.7
2022-12-04T00:33:15.955Z,99.7
2022-12-04T00:34:32.249Z,99.8
2022-12-04T00:35:48.547Z,99.8
2022-12-04T00:37:04.836Z,99.8
2022-12-04T00:38:21.129Z,99.7
2022-12-04T00:39:36.446Z,99.7
2022-12-04T00:40:52.748Z,99.7
2022-12-04T00:42:09.039Z,99.7
2022-12-04T00:43:25.340Z,99.7
2022-12-04T00:44:41.634Z,99.6
2022-12-04T00:45:57.926Z,99.5
2022-12-04T00:47:14.223Z,99.5
2022-12-04T00:48:30.508Z,99.5
2022-12-04T00:49:46.804Z,99.5
2022-12-04T00:51:03.098Z,99.5
2022-12-04T00:52:19.404Z,99.5
2022-12-04T00:53:35.695Z,99.4
2022-12-04T00:54:51.982Z,99.4
2022-12-04T00:56:07.000Z,99.3
2022-12-04T00:57:23.591Z,99.4
2022-12-04T00:58:39.888Z,99.4
2022-12-04T00:59:56.182Z,99.3
2022-12-04T01:01:12.474Z,99.4
2022-12-04T01:02:28.767Z,99.5
2022-12-04T01:03:45.062Z,99.5
2022-12-04T01:05:01.361Z,99.5
2022-12-04T01:06:17.652Z,99.6
2022-12-04T01:07:33.954Z,99.5
2022-12-04T01:08:50.243Z,99.5
2022-12-04T01:10:06.543Z,99.5
2022-12-04T01:11:22.824Z,99.5
2022-12-04T01:12:38.145Z,99.4
2022-12-04T01:13:54.431Z,99.4
2022-12-04T01:15:10.732Z,99.4
2022-12-04T01:16:27.019Z,99.4
2022-12-04T01:17:43.325Z,99.4
2022-12-04T01:18:59.613Z,99.4
2022-12-04T01:20:15.911Z,99.4
2022-12-04T01:21:32.209Z,99.4
2022-12-04T01:22:48.503Z,99.4
2022-12-04T01:24:04.802Z,99.5
2022-12-04T01:25:21.091Z,99.4
2022-12-04T01:26:37.380Z,99.5
2022-12-04T01:27:53.677Z,99.5
2022-12-04T01:29:08.983Z,99.5
2022-12-04T01:30:25.286Z,99.6
2022-12-04T01:31:41.571Z,99.6
2022-12-04T01:32:57.877Z,99.6
2022-12-04T01:34:14.158Z,99.5
2022-12-04T01:35:30.464Z,99.7
2022-12-04T01:36:46.753Z,99.7
2022-12-04T01:38:03.044Z,99.7
2022-12-04T01:39:19.351Z,99.7
2022-12-04T01:40:35.635Z,99.7
2022-12-04T01:41:51.936Z,99.7
2022-12-04T01:43:08.223Z,99.7
2022-12-04T01:44:24.522Z,99.7
2022-12-04T01:45:39.835Z,99.7
2022-12-04T01:46:56.136Z,99.8
2022-12-04T01:48:12.424Z,99.7
2022-12-04T01:49:28.726Z,99.7
2022-12-04T01:50:45.014Z,99.7
2022-12-04T01:52:01.311Z,99.7
2022-12-04T01:53:17.595Z,99.6
2022-12-04T01:54:33.902Z,99.5
2022-12-04T01:55:50.192Z,99.6
2022-12-04T01:57:06.481Z,99.6
2022-12-04T01:58:22.774Z,99.6
2022-12-04T01:59:39.073Z,99.5
2022-12-04T02:00:55.366Z,99.4
2022-12-04T02:02:10.678Z,99.4
2022-12-04T02:03:26.979Z,99.4
2022-12-04T02:04:43.270Z,99.4
2022-12-04T02:05:59.569Z,99.4
2022-12-04T02:07:15.855Z,99.4
2022-12-04T02:08:32.160Z,99.4
2022-12-04T02:09:48.453Z,99.4
2022-12-04T02:11:04.747Z,99.5
2022-12-04T02:12:21.043Z,99.4
2022-12-04T02:13:37.339Z,99.5
2022-12-04T02:14:53.627Z,99.5
2022-12-04T02:16:09.919Z,99.5
2022-12-04T02:17:26.221Z,99.5
2022-12-04T02:18:41.518Z,99.5
2022-12-04T02:19:57.832Z,99.6
2022-12-04T02:21:14.115Z,99.5
2022-12-04T02:22:30.407Z,99.4
2022-12-04T02:23:46.714Z,99.4
2022-12-04T02:25:03.007Z,99.5
2022-12-04T02:26:18.316Z,99.5
2022-12-04T02:27:34.611Z,99.5
2022-12-04T02:28:50.910Z,99.5
2022-12-04T02:30:07.211Z,99.5
2022-12-04T02:31:23.500Z,99.6
2022-12-04T02:32:39.803Z,99.6
2022-12-04T02:33:56.082Z,99.5
2022-12-04T02:35:12.379Z,99.6
2022-12-04T02:36:28.678Z,99.6
2022-12-04T02:37:44.962Z,99.7
2022-12-04T02:39:01.271Z,99.7
2022-12-04T02:40:17.556Z,99.7
2022-12-04T02:41:33.847Z,99.6
2022-12-04T02:42:49.168Z,99.5
2022-12-04T02:44:05.454Z,99.5
2022-12-04T02:45:21.764Z,99.6
2022-12-04T02:46:38.045Z,99.6
2022-12-04T02:47:54.333Z,99.7
2022-12-04T02:49:10.648Z,99.7
2022-12-04T02:50:26.942Z,99.6
2022-12-04T02:51:43.230Z,99.8
2022-12-04T02:52:59.518Z,99.7
2022-12-04T02:54:15.809Z,99.8
2022-12-04T02:55:32.114Z,99.9
2022-12-04T02:56:48.414Z,100
2022-12-04T02:58:04.697Z,100
2022-12-04T02:59:20.015Z,100
2022-12-04T03:00:36.313Z,100
2022-12-04T03:01:52.592Z,100
2022-12-04T03:03:08.896Z,100
2022-12-04T03:04:25.189Z,100
2022-12-04T03:05:41.477Z,100
2022-12-04T03:06:57.778Z,100
2022-12-04T03:08:14.070Z,100
2022-12-04T03:09:30.373Z,100
2022-12-04T03:10:46.663Z,100
2022-12-04T03:12:02.959Z,100
2022-12-04T03:13:19.251Z,100
2022-12-04T03:14:35.539Z,100
2022-12-04T03:15:50.849Z,100
2022-12-04T03:17:07.142Z,100
2022-12-04T03:18:23.445Z,100
2022-12-04T03:19:39.741Z,100
2022-12-04T03:20:56.036Z,100
2022-12-04T03:22:12.331Z,100
2022-12-04T03:23:28.619Z,100
2022-12-04T03:24:44.912Z,100
2022-12-04T03:26:01.222Z,100
2022-12-04T03:27:17.506Z,100
2022-12-04T03:28:33.800Z,100
2022-12-04T03:29:50.092Z,100
2022-12-04T03:31:06.394Z,100
2022-12-04T03:32:21.702Z,100
2022-12-04T03:33:37.993Z,100
2022-12-04T03:34:54.288Z,100
2022-12-04T03:36:10.582Z,100
2022-12-04T03:37:26.884Z,100
2022-12-04T03:38:43.172Z,100
2022-12-04T03:39:59.000Z,100
2022-12-04T03:41:15.776Z,100
2022-12-04T03:42:32.067Z,100
2022-12-04T03:43:48.354Z,100
2022-12-04T03:45:04.641Z,100
2022-12-04T03:46:20.950Z,100
2022-12-04T03:47:37.243Z,100
2022-12-04T03:48:52.543Z,100
2022-12-04T03:50:08.838Z,100
2022-12-04T03:51:25.136Z,100
2022-12-04T03:52:41.436Z,100
2022-12-04T03:53:57.731Z,100
2022-12-04T03:55:14.020Z,100
2022-12-04T03:56:30.310Z,100
2022-12-04T03:57:46.608Z,100
2022-12-04T03:59:02.000Z,100
2022-12-04T04:00:19.198Z,100
2022-12-04T04:01:35.497Z,100
2022-12-04T04:02:51.799Z,100
2022-12-04T04:04:08.088Z,100
2022-12-04T04:05:23.398Z,100
2022-12-04T04:06:39.700Z,100
2022-12-04T04:07:55.978Z,100
2022-12-04T04:09:12.286Z,100
2022-12-04T04:10:28.578Z,100
2022-12-04T04:11:44.870Z,100
2022-12-04T04:13:01.166Z,100
2022-12-04T04:14:17.471Z,100
2022-12-04T04:15:33.754Z,100
2022-12-04T04:16:50.049Z,100
2022-12-04T04:18:06.346Z,100
2022-12-04T04:19:22.648Z,100
2022-12-04T04:20:38.936Z,100
2022-12-04T04:21:54.245Z,100
2022-12-04T04:23:10.550Z,100
2022-12-04T04:24:26.833Z,100
2022-12-04T04:25:43.130Z,100
2022-12-04T04:26:59.427Z,100
2022-12-04T04:28:15.717Z,100
2022-12-04T04:29:32.018Z,100
2022-12-04T04:30:48.321Z,100
2022-12-04T04:32:04.610Z,100
2022-12-04T04:33:20.911Z,100
2022-12-04T04:34:37.198Z,100
2022-12-04T04:35:53.499Z,100
2022-12-04T04:37:09.791Z,100
2022-12-04T04:38:25.103Z,100
2022-12-04T04:39:41.395Z,100
2022-12-04T04:40:57.685Z,100
2022-12-04T04:42:13.975Z,100
2022-12-04T04:43:30.271Z,100
2022-12-04T04:44:46.577Z,100
2022-12-04T04:46:02.871Z,100
2022-12-04T04:47:19.157Z,100
2022-12-04T04:48:35.451Z,100
2022-12-04T04:49:51.744Z,100
2022-12-04T04:51:08.045Z,100
2022-12-04T04:52:24.344Z,100
2022-12-04T04:53:40.642Z,100
2022-12-04T04:54:55.936Z,100
2022-12-04T04:56:12.234Z,100
2022-12-04T04:57:28.525Z,100
2022-12-04T04:58:44.826Z,100
2022-12-04T05:00:01.121Z,100
2022-12-04T05:01:17.422Z,100
2022-12-04T05:02:33.703Z,100
2022-12-04T05:03:50.002Z,100
2022-12-04T05:05:06.310Z,100
2022-12-04T05:06:22.589Z,100
2022-12-04T05:07:38.889Z,100
2022-12-04T05:08:55.189Z,100
2022-12-04T05:10:11.475Z,100
2022-12-04T05:11:26.783Z,100
2022-12-04T05:12:43.082Z,100
2022-12-04T05:13:59.382Z,100
2022-12-04T05:15:15.668Z,100
2022-12-04T05:16:31.976Z,100
2022-12-04T05:17:48.273Z,100
2022-12-04T05:19:04.562Z,100
2022-12-04T05:20:20.855Z,100
2022-12-04T05:21:37.143Z,100
2022-12-04T05:22:53.439Z,100
2022-12-04T05:24:09.736Z,100
2022-12-04T05:25:26.024Z,100
2022-12-04T05:26:42.324Z,100
2022-12-04T05:27:57.640Z,100
2022-12-04T05:29:13.943Z,100
2022-12-04T05:30:30.235Z,100
2022-12-04T05:31:46.519Z,100
2022-12-04T05:33:02.816Z,100
2022-12-04T05:34:19.116Z,100
2022-12-04T05:35:35.402Z,100
2022-12-04T05:36:51.696Z,100
2022-12-04T05:38:07.993Z,100
2022-12-04T05:39:24.291Z,100
2022-12-04T05:40:40.581Z,100
2022-12-04T05:41:56.874Z,100
2022-12-04T05:43:13.167Z,100
2022-12-04T05:44:28.484Z,100
2022-12-04T05:45:44.779Z,100
2022-12-04T05:47:01.073Z,100
2022-12-04T05:48:17.362Z,100
2022-12-04T05:49:33.666Z,100
2022-12-04T05:50:49.948Z,100
2022-12-04T05:52:06.243Z,100
2022-12-04T05:53:22.549Z,100
2022-12-04T05:54:38.841Z,100
2022-12-04T05:55:55.130Z,100
2022-12-04T05:57:11.431Z,100
2022-12-04T05:58:27.719Z,100
2022-12-04T05:59:44.028Z,100
2022-12-04T06:00:59.335Z,100
2022-12-04T06:02:15.627Z,100
2022-12-04T06:03:31.917Z,100
2022-12-04T06:04:48.208Z,100
2022-12-04T06:06:04.505Z,100
2022-12-04T06:07:20.813Z,100
2022-12-04T06:08:37.110Z,100
2022-12-04T06:09:53.399Z,100
2022-12-04T06:11:09.687Z,100
2022-12-04T06:12:25.976Z,100
2022-12-04T06:13:42.276Z,100
2022-12-04T06:14:58.571Z,100
2022-12-04T06:16:14.860Z,100
2022-12-04T06:17:30.169Z,100
2022-12-04T06:18:46.469Z,100
2022-12-04T06:20:02.757Z,100
2022-12-04T06:21:19.065Z,100
2022-12-04T06:22:35.359Z,100
2022-12-04T06:23:51.651Z,100
2022-12-04T06:25:07.950Z,100
2022-12-04T06:26:24.232Z,100
2022-12-04T06:27:40.530Z,100
2022-12-04T06:28:56.771Z,100
2022-12-04T06:30:13.077Z,100
2022-12-04T06:31:29.359Z,100
2022-12-04T06:32:45.615Z,100
2022-12-04T06:34:00.880Z,100
2022-12-04T06:35:17.170Z,100
2022-12-04T06:36:33.464Z,100
2022-12-04T06:37:49.721Z,100
2022-12-04T06:39:06.006Z,100
2022-12-04T06:40:22.257Z,100
2022-12-04T06:41:37.519Z,100
2022-12-04T06:42:53.765Z,100
2022-12-04T06:44:10.002Z,100
2022-12-04T06:45:26.241Z,100
2022-12-04T06:46:42.497Z,100
2022-12-04T06:47:58.738Z,100
2022-12-04T06:49:14.977Z,100
2022-12-04T06:50:31.202Z,100
2022-12-04T06:51:47.453Z,100
2022-12-04T06:53:03.703Z,100
2022-12-04T06:54:19.929Z,100
2022-12-04T06:55:36.171Z,100
2022-12-04T06:56:52.408Z,100
2022-12-04T06:58:07.679Z,100
2022-12-04T06:59:23.913Z,100
2022-12-04T07:00:40.144Z,100
2022-12-04T07:01:56.394Z,100
2022-12-04T07:03:12.630Z,100
2022-12-04T07:04:28.877Z,100
2022-12-04T07:05:45.123Z,100
2022-12-04T07:07:01.347Z,100
2022-12-04T07:08:17.596Z,100
2022-12-04T07:09:33.836Z,100
2022-12-04T07:10:50.068Z,100
2022-12-04T07:12:06.311Z,100
2022-12-04T07:13:22.560Z,100
2022-12-04T07:14:37.813Z,100
2022-12-04T07:15:54.050Z,100
2022-12-04T07:17:10.297Z,100
2022-12-04T07:18:26.545Z,100
2022-12-04T07:19:42.775Z,100
2022-12-04T07:20:59.031Z,100
2022-12-04T07:22:15.264Z,100
2022-12-04T07:24:47.749Z,100
2022-12-04T07:26:03.984Z,100
2022-12-04T07:27:20.225Z,100
2022-12-04T07:28:36.471Z,100
2022-12-04T07:29:52.700Z,100
2022-12-04T07:31:07.967Z,100
2022-12-04T07:32:24.200Z,100
2022-12-04T07:33:40.437Z,100
2022-12-04T07:34:56.676Z,100
2022-12-04T07:36:12.930Z,100
2022-12-04T07:37:29.175Z,100
2022-12-04T07:38:45.401Z,100
2022-12-04T07:40:01.652Z,100
2022-12-04T07:41:17.893Z,100
2022-12-04T07:42:34.124Z,100
2022-12-04T07:43:50.372Z,100
2022-12-04T07:45:06.601Z,100
2022-12-04T07:47:39.089Z,100
2022-12-04T07:48:54.356Z,100
2022-12-04T07:50:10.582Z,100
2022-12-04T07:51:26.833Z,100
2022-12-04T07:52:43.071Z,100
2022-12-04T07:53:59.319Z,100
2022-12-04T07:55:15.543Z,100
2022-12-04T07:56:31.787Z,100
2022-12-04T07:57:48.024Z,100
2022-12-04T07:59:04.280Z,100
2022-12-04T08:00:20.522Z,100
2022-12-04T08:01:36.749Z,100
2022-12-04T08:02:52.985Z,100
2022-12-04T08:04:09.226Z,100
2022-12-04T08:05:24.485Z,100
2022-12-04T08:06:40.725Z,100
2022-12-04T08:07:56.971Z,100
2022-12-04T08:09:13.205Z,100
2022-12-04T08:10:29.454Z,100
2022-12-04T08:11:45.696Z,100
2022-12-04T08:13:01.938Z,100
2022-12-04T08:14:18.173Z,100
2022-12-04T08:15:34.421Z,100
2022-12-04T08:16:50.659Z,100
2022-12-04T08:18:06.900Z,100
2022-12-04T08:19:23.146Z,100
2022-12-04T08:20:39.386Z,100
2022-12-04T08:21:54.638Z,100
2022-12-04T08:23:10.877Z,100
2022-12-04T08:24:27.121Z,100
2022-12-04T08:25:43.360Z,100
2022-12-04T08:26:59.589Z,100
2022-12-04T08:28:15.841Z,100
2022-12-04T08:29:32.077Z,100
2022-12-04T08:30:48.000Z,100
2022-12-04T08:32:04.570Z,100
2022-12-04T08:33:20.805Z,100
2022-12-04T08:34:37.033Z,100
2022-12-04T08:35:53.282Z,100
2022-12-04T08:37:09.516Z,100
2022-12-04T08:38:24.777Z,100
2022-12-04T08:39:41.019Z,100
2022-12-04T08:40:57.255Z,100
2022-12-04T08:42:13.501Z,100
2022-12-04T08:43:29.739Z,100
2022-12-04T08:44:45.991Z,100
2022-12-04T08:46:02.218Z,100
2022-12-04T08:47:18.462Z,100
2022-12-04T08:48:34.698Z,100
2022-12-04T08:49:50.955Z,100
2022-12-04T08:51:07.182Z,100
2022-12-04T08:52:23.433Z,100
2022-12-04T08:53:39.662Z,100
2022-12-04T08:54:54.928Z,100
2022-12-04T08:56:11.163Z,100
2022-12-04T08:57:27.406Z,100
2022-12-04T08:58:43.646Z,100
2022-12-04T08:59:59.891Z,100
2022-12-04T09:01:16.122Z,100
2022-12-04T09:02:32.363Z,100
2022-12-04T09:03:48.619Z,100
2022-12-04T09:05:04.852Z,100
2022-12-04T09:06:21.103Z,100
2022-12-04T09:07:37.340Z,100
2022-12-04T09:08:53.568Z,100
2022-12-04T09:10:09.823Z,100
2022-12-04T09:11:25.070Z,100
2022-12-04T09:12:41.302Z,100
2022-12-04T09:13:57.563Z,100
2022-12-04T09:15:13.801Z,100
2022-12-04T09:16:30.028Z,100
2022-12-04T09:17:46.271Z,100
2022-12-04T09:19:02.518Z,100
2022-12-04T09:20:18.749Z,100
2022-12-04T09:21:34.992Z,100
2022-12-04T09:22:51.227Z,100
2022-12-04T09:24:07.470Z,100
2022-12-04T09:25:23.710Z,100
2022-12-04T09:26:39.949Z,100
2022-12-04T09:27:55.212Z,100
2022-12-04T09:29:11.453Z,100
2022-12-04T09:30:27.692Z,100
2022-12-04T09:31:43.934Z,100
2022-12-04T09:33:00.179Z,100
2022-12-04T09:34:16.413Z,100
2022-12-04T09:35:32.656Z,100
2022-12-04T09:36:48.904Z,100
2022-12-04T09:38:05.144Z,100
2022-12-04T09:39:21.373Z,100
2022-12-04T09:40:37.619Z,100
2022-12-04T09:41:53.875Z,100
2022-12-04T09:43:10.098Z,100
2022-12-04T09:44:25.371Z,100
2022-12-04T09:45:41.597Z,100
2022-12-04T09:46:57.841Z,100
2022-12-04T09:48:14.084Z,100
2022-12-04T09:49:30.326Z,100
2022-12-04T09:50:46.570Z,100
2022-12-04T09:52:02.796Z,100
2022-12-04T09:53:19.042Z,100
2022-12-04T09:54:35.276Z,100
2022-12-04T09:55:51.535Z,100
2022-12-04T09:57:07.757Z,100
2022-12-04T09:58:24.004Z,100
2022-12-04T09:59:40.250Z,100
2022-12-04T10:00:55.500Z,100
2022-12-04T10:02:11.745Z,100
2022-12-04T10:04:44.229Z,100
2022-12-04T10:06:00.473Z,100
2022-12-04T10:07:16.707Z,100
2022-12-04T10:08:32.943Z,100
2022-12-04T10:09:49.188Z,100
2022-12-04T10:11:05.432Z,100
2022-12-04T10:12:21.669Z,100
2022-12-04T10:13:37.921Z,100
2022-12-04T10:14:54.149Z,100
2022-12-04T10:16:10.387Z,100
2022-12-04T10:17:25.659Z,100
2022-12-04T10:18:41.887Z,100
2022-12-04T10:19:58.121Z,100
2022-12-04T10:21:14.361Z,100
2022-12-04T10:22:30.624Z,100
2022-12-04T10:23:46.861Z,100
2022-12-04T10:25:03.094Z,100
2022-12-04T10:26:19.332Z,100
2022-12-04T10:27:35.568Z,100
2022-12-04T10:28:51.814Z,100
2022-12-04T10:30:08.059Z,100
2022-12-04T10:31:24.294Z,100
2022-12-04T10:32:40.540Z,100
2022-12-04T10:33:55.803Z,100
2022-12-04T10:35:12.030Z,100
2022-12-04T10:36:28.266Z,100
2022-12-04T10:37:44.509Z,100
2022-12-04T10:39:00.763Z,100
2022-12-04T10:40:16.998Z,100
2022-12-04T10:41:33.234Z,100
2022-12-04T10:42:49.469Z,100
2022-12-04T10:44:05.712Z,100
2022-12-04T10:45:21.970Z,100
2022-12-04T10:46:38.209Z,100
2022-12-04T10:47:54.433Z,100
2022-12-04T10:49:10.694Z,100
2022-12-04T10:50:25.945Z,100
2022-12-04T10:51:42.180Z,100
2022-12-04T10:52:58.421Z,100
2022-12-04T10:54:14.652Z,100
2022-12-04T10:55:30.894Z,100
2022-12-04T10:56:46.167Z,100
2022-12-04T10:58:02.397Z,100
2022-12-04T10:59:18.653Z,100
2022-12-04T11:00:34.891Z,100
2022-12-04T11:01:51.127Z,100
2022-12-04T11:03:07.367Z,100
2022-12-04T11:04:23.604Z,100
2022-12-04T11:05:39.000Z,100
2022-12-04T11:06:56.082Z,100
2022-12-04T11:08:12.329Z,100
2022-12-04T11:09:28.562Z,100
2022-12-04T11:10:44.806Z,100
2022-12-04T11:12:01.045Z,100
2022-12-04T11:13:16.312Z,100
2022-12-04T11:14:32.551Z,100
2022-12-04T11:15:48.794Z,100
2022-12-04T11:17:05.029Z,100
2022-12-04T11:18:21.267Z,100
2022-12-04T11:19:37.507Z,100
2022-12-04T11:20:53.750Z,100
2022-12-04T11:22:09.999Z,100
2022-12-04T11:23:26.245Z,100
2022-12-04T11:24:42.474Z,100
2022-12-04T11:25:58.721Z,100
2022-12-04T11:27:14.949Z,100
2022-12-04T11:28:31.206Z,100
2022-12-04T11:29:46.447Z,100
2022-12-04T11:31:02.690Z,100
2022-12-04T11:32:18.943Z,100
2022-12-04T11:33:35.181Z,100
2022-12-04T11:34:51.407Z,100
2022-12-04T11:36:07.649Z,100
2022-12-04T11:37:23.900Z,100
2022-12-04T11:38:40.145Z,100
2022-12-04T11:39:56.385Z,100
2022-12-04T11:41:12.610Z,100
2022-12-04T11:42:28.848Z,100
2022-12-04T11:43:45.102Z,100
2022-12-04T11:45:01.336Z,100
2022-12-04T11:46:16.597Z,100
2022-12-04T11:47:32.835Z,100
2022-12-04T11:48:49.077Z,100
2022-12-04T11:50:05.316Z,100
2022-12-04T11:51:21.553Z,100
2022-12-04T11:52:37.803Z,100
2022-12-04T11:53:54.041Z,100
2022-12-04T11:55:10.282Z,100
2022-12-04T11:56:26.512Z,100
2022-12-04T11:57:42.769Z,100
2022-12-04T11:58:59.003Z,100
2022-12-04T12:00:15.247Z,100
2022-12-04T12:01:31.498Z,100
2022-12-04T12:02:47.852Z,100
2022-12-04T12:04:04.088Z,100
2022-12-04T12:05:20.318Z,100
2022-12-04T12:06:36.566Z,100
2022-12-04T12:07:52.815Z,100
2022-12-04T12:09:09.043Z,100
2022-12-04T12:10:25.290Z,100
2022-12-04T12:11:41.527Z,100
2022-12-04T12:12:57.770Z,100
2022-12-04T12:14:14.010Z,100
2022-12-04T12:15:30.248Z,100
2022-12-04T12:16:46.488Z,100
2022-12-04T12:18:02.728Z,100
2022-12-04T12:19:17.981Z,100
2022-12-04T12:20:34.223Z,100
2022-12-04T12:21:50.478Z,100
2022-12-04T12:23:06.708Z,100
2022-12-04T12:24:22.950Z,100
2022-12-04T12:25:39.192Z,100
2022-12-04T12:26:55.436Z,100
2022-12-04T12:28:11.671Z,100
2022-12-04T12:29:27.916Z,100
2022-12-04T12:30:44.156Z,100
2022-12-04T12:32:00.391Z,100
2022-12-04T12:33:16.631Z,100
2022-12-04T12:34:32.878Z,100
2022-12-04T12:35:48.144Z,100
2022-12-04T12:37:04.377Z,100
2022-12-04T12:38:20.610Z,100
2022-12-04T12:39:36.850Z,100
2022-12-04T12:40:53.099Z,100
2022-12-04T12:42:09.332Z,100
2022-12-04T12:43:25.570Z,100
2022-12-04T12:44:41.814Z,100
2022-12-04T12:45:58.058Z,100
2022-12-04T12:47:14.295Z,100
2022-12-04T12:48:30.534Z,100
2022-12-04T12:49:46.786Z,100
2022-12-04T12:51:03.024Z,100
2022-12-04T12:52:18.276Z,100
2022-12-04T12:53:34.520Z,100
2022-12-04T12:54:50.762Z,100
2022-12-04T12:56:07.000Z,100
2022-12-04T12:57:23.244Z,100
2022-12-04T12:58:39.484Z,100
2022-12-04T12:59:55.720Z,100
2022-12-04T13:01:11.970Z,100
2022-12-04T13:02:28.200Z,100
2022-12-04T13:03:44.447Z,100
2022-12-04T13:05:00.694Z,100
2022-12-04T13:06:16.934Z,100
2022-12-04T13:07:33.161Z,100
2022-12-04T13:08:48.429Z,100
2022-12-04T13:10:04.655Z,100
2022-12-04T13:11:20.902Z,100
2022-12-04T13:12:37.150Z,100
2022-12-04T13:13:53.394Z,100
2022-12-04T13:15:09.627Z,100
2022-12-04T13:16:25.866Z,100
2022-12-04T13:17:42.117Z,100
2022-12-04T13:18:58.346Z,100
2022-12-04T13:20:14.590Z,100
2022-12-04T13:21:30.830Z,100
2022-12-04T13:22:47.067Z,100
2022-12-04T13:24:03.305Z,100
2022-12-04T13:25:18.569Z,100
2022-12-04T13:26:34.805Z,100
2022-12-04T13:27:51.044Z,100
2022-12-04T13:29:07.293Z,100
2022-12-04T13:30:23.529Z,100
2022-12-04T13:31:39.776Z,100
2022-12-04T13:32:56.014Z,100
2022-12-04T13:34:12.243Z,100
2022-12-04T13:35:28.493Z,100
2022-12-04T13:36:44.736Z,100
2022-12-04T13:38:00.974Z,100
2022-12-04T13:39:17.206Z,100
2022-12-04T13:40:33.445Z,100
2022-12-04T13:41:48.717Z,100
2022-12-04T13:43:04.949Z,100
2022-12-04T13:44:21.183Z,100
2022-12-04T13:45:37.431Z,100
2022-12-04T13:46:53.670Z,100
2022-12-04T13:48:09.913Z,100
2022-12-04T13:49:26.156Z,100
2022-12-04T13:50:42.391Z,100
2022-12-04T13:51:58.631Z,100
2022-12-04T13:53:14.874Z,100
2022-12-04T13:54:31.126Z,100
2022-12-04T13:55:47.351Z,100
2022-12-04T13:57:03.600Z,100
2022-12-04T13:58:18.847Z,100
2022-12-04T13:59:35.107Z,100
2022-12-04T14:00:51.349Z,100
2022-12-04T14:02:07.572Z,100
2022-12-04T14:03:23.813Z,100
2022-12-04T14:04:40.060Z,100
2022-12-04T14:05:56.291Z,100
2022-12-04T14:07:12.539Z,100
2022-12-04T14:08:28.774Z,100
2022-12-04T14:09:45.018Z,100
2022-12-04T14:11:01.270Z,100
2022-12-04T14:12:17.499Z,100
2022-12-04T14:13:33.737Z,100
2022-12-04T14:14:49.000Z,100
2022-12-04T14:16:05.249Z,100
2022-12-04T14:17:21.478Z,100
2022-12-04T14:18:37.722Z,100
2022-12-04T14:19:53.954Z,100
2022-12-04T14:21:10.200Z,100
2022-12-04T14:22:26.455Z,100
2022-12-04T14:23:42.680Z,100
2022-12-04T14:24:58.918Z,100
2022-12-04T14:26:15.167Z,100
2022-12-04T14:27:31.402Z,100
2022-12-04T14:28:47.641Z,100
2022-12-04T14:30:03.880Z,100
2022-12-04T14:31:19.144Z,100
2022-12-04T14:32:35.390Z,100
2022-12-04T14:33:51.620Z,100
2022-12-04T14:35:07.875Z,100
2022-12-04T14:36:24.106Z,100
2022-12-04T14:37:40.344Z,100
2022-12-04T14:38:56.581Z,100
2022-12-04T14:40:12.829Z,100
2022-12-04T14:41:29.074Z,100
2022-12-04T14:42:45.309Z,100
2022-12-04T14:44:01.549Z,100
2022-12-04T14:45:17.783Z,100
2022-12-04T14:46:34.030Z,100
2022-12-04T14:47:49.279Z,100
2022-12-04T14:49:05.529Z,100
2022-12-04T14:50:21.771Z,100
2022-12-04T14:51:38.007Z,100
2022-12-04T14:52:54.250Z,100
2022-12-04T14:54:10.488Z,100
2022-12-04T14:55:26.727Z,100
2022-12-04T14:56:42.979Z,100
2022-12-04T14:57:59.216Z,100
2022-12-04T14:59:15.461Z,100
2022-12-04T15:00:31.693Z,100
2022-12-04T15:01:47.938Z,100
2022-12-04T15:03:04.183Z,100
2022-12-04T15:04:19.433Z,100
2022-12-04T15:05:35.666Z,100
2022-12-04T15:06:51.916Z,100
2022-12-04T15:08:08.157Z,100
2022-12-04T15:09:24.397Z,100
2022-12-04T15:10:40.634Z,100
2022-12-04T15:11:55.898Z,100
2022-12-04T15:13:12.129Z,100
2022-12-04T15:14:28.383Z,100
2022-12-04T15:15:44.625Z,100
2022-12-04T15:17:00.867Z,100
2022-12-04T15:18:17.100Z,100
2022-12-04T15:19:33.340Z,100
2022-12-04T15:20:49.577Z,100
2022-12-04T15:22:05.825Z,100
2022-12-04T15:23:22.056Z,100
2022-12-04T15:24:38.297Z,100
2022-12-04T15:25:54.608Z,100
2022-12-04T15:27:10.891Z,100
2022-12-04T15:28:26.206Z,100
2022-12-04T15:29:42.506Z,100
2022-12-04T15:30:58.798Z,100
2022-12-04T15:32:15.099Z,100
2022-12-04T15:33:31.386Z,100
2022-12-04T15:34:47.689Z,100
2022-12-04T15:36:03.976Z,100
2022-12-04T15:37:20.271Z,100
2022-12-04T15:38:36.568Z,100
2022-12-04T15:39:52.867Z,100
2022-12-04T15:41:09.159Z,100
2022-12-04T15:42:25.446Z,100
2022-12-04T15:43:41.749Z,100
2022-12-04T15:44:57.049Z,100
2022-12-04T15:46:13.357Z,100
2022-12-04T15:47:29.649Z,100
2022-12-04T15:48:45.934Z,100
2022-12-04T15:50:02.228Z,100
2022-12-04T15:51:18.526Z,100
2022-12-04T15:52:34.820Z,100
2022-12-04T15:53:51.114Z,100
2022-12-04T15:55:07.403Z,100
2022-12-04T15:56:23.696Z,100
2022-12-04T15:57:39.998Z,100
2022-12-04T15:58:56.294Z,100
2022-12-04T16:00:12.587Z,100
2022-12-04T16:01:27.893Z,100
2022-12-04T16:02:44.193Z,100
2022-12-04T16:04:00.489Z,100
2022-12-04T16:05:16.776Z,100
2022-12-04T16:06:33.088Z,100
2022-12-04T16:07:49.374Z,100
2022-12-04T16:09:05.672Z,100
2022-12-04T16:10:21.955Z,100
2022-12-04T16:11:38.257Z,100
2022-12-04T16:12:54.546Z,100
2022-12-04T16:14:10.853Z,100
2022-12-04T16:15:27.134Z,100
2022-12-04T16:16:43.430Z,100
2022-12-04T16:17:58.738Z,100
2022-12-04T16:19:15.042Z,100
2022-12-04T16:20:31.328Z,100
2022-12-04T16:21:47.638Z,100
2022-12-04T16:23:03.923Z,100
2022-12-04T16:24:20.229Z,100
2022-12-04T16:25:36.507Z,100
2022-12-04T16:26:52.803Z,100
2022-12-04T16:28:09.098Z,100
2022-12-04T16:29:25.393Z,100
2022-12-04T16:30:41.690Z,100
2022-12-04T16:31:57.979Z,100
2022-12-04T16:33:14.275Z,100
2022-12-04T16:34:29.591Z,100
2022-12-04T16:35:45.894Z,100
2022-12-04T16:37:02.179Z,100
2022-12-04T16:38:18.469Z,100
2022-12-04T16:39:34.768Z,100
2022-12-04T16:40:51.062Z,100
2022-12-04T16:42:07.356Z,100
2022-12-04T16:43:23.647Z,100
2022-12-04T16:44:39.961Z,100
2022-12-04T16:45:56.239Z,100
2022-12-04T16:47:12.545Z,100
2022-12-04T16:48:28.829Z,100
2022-12-04T16:49:45.131Z,100
2022-12-04T16:51:00.436Z,100
2022-12-04T16:52:16.739Z,100
2022-12-04T16:53:33.020Z,100
2022-12-04T16:54:49.316Z,100
2022-12-04T16:56:05.619Z,100
2022-12-04T16:57:21.905Z,100
2022-12-04T16:58:38.207Z,100
2022-12-04T16:59:54.507Z,100
2022-12-04T17:01:10.804Z,100
2022-12-04T17:02:27.098Z,100
2022-12-04T17:03:43.380Z,100
2022-12-04T17:04:59.676Z,100
2022-12-04T17:06:15.983Z,100
2022-12-04T17:07:31.278Z,100
2022-12-04T17:08:47.576Z,100
2022-12-04T17:10:03.867Z,100
2022-12-04T17:11:20.170Z,100
2022-12-04T17:12:36.464Z,100
2022-12-04T17:13:52.753Z,100
2022-12-04T17:15:09.053Z,100
2022-12-04T17:16:25.339Z,100
2022-12-04T17:17:41.640Z,100
2022-12-04T17:18:57.931Z,100
2022-12-04T17:20:14.244Z,100
2022-12-04T17:21:30.520Z,100
2022-12-04T17:22:46.814Z,100
2022-12-04T17:24:02.129Z,100
2022-12-04T17:25:18.422Z,100
2022-12-04T17:26:34.734Z,100